Time;durP1;ratioP1;P1;durP2;ratioP2;P2;SDS_P1;SDS_P2;PMS_P1;PMS_P2;Temp;Humidity;BMP_temperature;BMP_pressure;BME280_temperature;BME280_humidity;BME280_pressure;Samples;Min_cycle;Max_cycle;Signal;HPM_P1;HPM_P2
2023/08/12 00:02:08;;;;;;;;;;;16.50;90.00;;;15.18;79.42;100792.16;9881832;29;97236;-85
2023/08/12 00:07:11;;;;;;;;;;;16.40;89.20;;;15.03;80.54;100786.75;9887293;29;96829;-85
2023/08/12 00:12:15;;;;;;;;;;;16.30;90.50;;;14.92;81.26;100777.31;9866749;29;97623;-85
2023/08/12 00:17:18;;;;;;;;;;;16.10;90.80;;;14.83;82.45;100790.97;9883786;29;96886;-84
2023/08/12 00:22:23;;;;;;;;;;;16.00;91.50;;;14.74;82.77;100774.16;9872782;29;96640;-84
2023/08/12 00:27:26;;;;;;;;;;;15.90;91.70;;;14.69;83.47;100780.06;9903947;29;96774;-85
2023/08/12 00:32:30;;;;;;;;;;;15.80;92.20;;;14.59;84.31;100775.97;9880058;29;96626;-84
2023/08/12 00:37:33;;;;;;;;;;;15.70;92.20;;;14.53;84.84;100776.69;9854765;29;96828;-84
2023/08/12 00:42:37;;;;;;;;;;;15.70;92.40;;;14.45;84.95;100772.19;9874387;29;97480;-85
2023/08/12 00:47:41;;;;;;;;;;;15.50;92.20;;;14.42;85.35;100783.25;9867117;29;98261;-84
2023/08/12 00:52:45;;;;;;;;;;;15.50;92.90;;;14.40;86.49;100770.06;9869762;29;97002;-84
2023/08/12 00:57:49;;;;;;;;;;;15.50;93.60;;;14.38;86.59;100760.56;9903808;29;96964;-85
2023/08/12 01:02:53;;;;;;;;;;;15.50;93.30;;;14.37;86.66;100765.06;9881230;29;97141;-84
2023/08/12 01:07:57;;;;;;;;;;;15.50;93.30;;;14.36;86.22;100762.59;9892210;29;96652;-84
2023/08/12 01:13:27;;;;;;;;;;;15.50;93.30;;;14.37;86.37;100774.94;9899233;29;96593;-84
2023/08/12 01:18:31;;;;;;;;;;;15.50;93.60;;;14.32;86.34;100785.31;9886546;29;98199;-84
2023/08/12 01:23:34;;;;;;;;;;;15.50;93.80;;;14.31;86.82;100797.03;9869741;29;98374;-85
2023/08/12 01:28:38;;;;;;;;;;;15.40;94.00;;;14.22;87.46;100803.47;9854772;29;96738;-85
2023/08/12 01:33:58;;;;;;;;;;;15.40;94.30;;;14.13;88.26;100800.81;9894558;29;97654;-85
2023/08/12 01:39:01;;;;;;;;;;;15.30;94.90;;;14.05;89.35;100800.03;9876789;29;96577;-85
2023/08/12 01:44:08;;;;;;;;;;;15.10;95.50;;;13.94;89.72;100795.91;9877494;29;97459;-84
2023/08/12 01:49:11;;;;;;;;;;;15.10;95.50;;;13.83;89.63;100793.63;9902125;29;96565;-85
2023/08/12 01:54:15;;;;;;;;;;;15.00;95.70;;;13.73;91.42;100793.84;9884895;29;96640;-85
2023/08/12 01:59:18;;;;;;;;;;;15.00;95.30;;;13.71;92.81;100789.69;9872349;29;96610;-85
2023/08/12 02:04:22;;;;;;;;;;;14.90;95.10;;;13.73;93.83;100785.00;9883523;29;96928;-85
2023/08/12 02:09:25;;;;;;;;;;;15.00;95.40;;;13.73;94.17;100780.47;9869835;29;96654;-85
2023/08/12 02:14:29;;;;;;;;;;;15.00;95.30;;;13.82;94.90;100775.94;9854781;29;96859;-85
2023/08/12 02:19:33;;;;;;;;;;;15.00;95.70;;;13.86;94.72;100772.75;9867827;29;98895;-84
2023/08/12 02:24:37;;;;;;;;;;;15.10;95.90;;;13.87;94.77;100785.09;9873584;29;96794;-84
2023/08/12 02:29:40;;;;;;;;;;;15.10;96.20;;;13.82;93.98;100776.78;9877485;29;96875;-85
2023/08/12 02:34:44;;;;;;;;;;;15.10;96.90;;;13.74;94.30;100773.31;9886137;29;96698;-85
2023/08/12 02:39:48;;;;;;;;;;;14.90;98.00;;;13.58;95.36;100769.72;9870226;29;96649;-85
2023/08/12 02:44:51;;;;;;;;;;;14.70;98.60;;;13.49;95.37;100768.06;9895518;29;97277;-85
2023/08/12 02:49:55;;;;;;;;;;;14.70;98.10;;;13.45;96.52;100769.44;9861135;29;98451;-85
2023/08/12 02:54:58;;;;;;;;;;;14.70;97.70;;;13.47;96.56;100769.25;9881845;29;96704;-85
2023/08/12 03:00:03;;;;;;;;;;;14.70;99.10;;;13.50;96.48;100774.28;9868018;29;96635;-85
2023/08/12 03:05:07;;;;;;;;;;;14.70;98.30;;;13.55;96.72;100769.22;9851055;29;96818;-85
2023/08/12 03:10:11;;;;;;;;;;;14.70;99.00;;;13.56;96.41;100769.06;9871036;29;96698;-85
2023/08/12 03:15:14;;;;;;;;;;;14.70;99.00;;;13.60;96.11;100781.03;9865979;29;96818;-85
2023/08/12 03:20:18;;;;;;;;;;;14.80;99.30;;;13.57;96.07;100776.06;9859287;29;98830;-84
2023/08/12 03:25:22;;;;;;;;;;;14.80;99.60;;;13.50;95.56;100779.59;9871688;29;98439;-84
2023/08/12 03:30:26;;;;;;;;;;;14.70;99.10;;;13.44;95.47;100778.47;9869852;29;97308;-84
2023/08/12 03:35:29;;;;;;;;;;;14.70;99.60;;;13.38;95.50;100789.81;9878291;29;96552;-84
2023/08/12 03:40:37;;;;;;;;;;;14.60;99.50;;;13.36;95.34;100797.16;9853101;29;96566;-84
2023/08/12 03:45:42;;;;;;;;;;;14.60;99.80;;;13.31;95.99;100804.84;9875557;29;97114;-85
2023/08/12 03:50:47;;;;;;;;;;;14.50;99.90;;;13.21;95.83;100797.03;9868080;29;96638;-85
2023/08/12 03:55:51;;;;;;;;;;;14.50;99.90;;;13.23;96.50;100799.53;9881750;29;96657;-85
2023/08/12 04:00:55;;;;;;;;;;;14.40;99.90;;;13.24;97.05;100798.53;9871375;29;96724;-84
2023/08/12 04:05:58;;;;;;;;;;;14.40;99.90;;;13.24;97.98;100803.84;9879576;29;97486;-85
2023/08/12 04:11:02;;;;;;;;;;;14.40;99.90;;;13.35;97.95;100811.50;9846630;29;98999;-84
2023/08/12 04:16:06;;;;;;;;;;;14.50;99.90;;;13.44;97.99;100805.16;9878568;29;96710;-84
2023/08/12 04:21:10;;;;;;;;;;;14.60;99.90;;;13.62;98.29;100818.28;9856189;29;97543;-84
2023/08/12 04:26:14;;;;;;;;;;;14.80;99.90;;;13.76;98.50;100820.22;9930756;29;97451;-83
2023/08/12 04:31:17;;;;;;;;;;;14.90;99.90;;;13.86;98.09;100828.88;9901514;29;97654;-85
2023/08/12 04:36:21;;;;;;;;;;;15.00;99.90;;;13.90;97.65;100813.28;9859973;29;97417;-85
2023/08/12 04:41:24;;;;;;;;;;;15.10;99.90;;;14.03;97.69;100824.25;9867949;29;96658;-85
2023/08/12 04:46:28;;;;;;;;;;;15.20;99.90;;;14.16;98.01;100826.38;9859182;29;96645;-85
2023/08/12 04:51:31;;;;;;;;;;;15.30;99.90;;;14.23;98.26;100823.81;9855595;29;96517;-85
2023/08/12 04:56:35;;;;;;;;;;;15.40;99.90;;;14.38;98.14;100830.91;9870268;29;96652;-85
2023/08/12 05:01:39;;;;;;;;;;;15.50;99.90;;;14.53;97.39;100833.69;9861538;29;96705;-85
2023/08/12 05:06:56;;;;;;;;;;;15.70;99.90;;;14.65;96.85;100836.78;9897677;29;97565;-85
2023/08/12 05:12:00;;;;;;;;;;;15.80;99.90;;;14.70;96.04;100835.22;9876900;29;99048;-85
2023/08/12 05:17:04;;;;;;;;;;;15.90;99.90;;;14.80;95.35;100832.28;9893072;29;98505;-88
2023/08/12 05:22:07;;;;;;;;;;;16.00;99.90;;;14.88;95.23;100828.75;9855666;29;96761;-88
2023/08/12 05:27:11;;;;;;;;;;;16.10;99.90;;;15.01;94.48;100830.78;9876693;29;96819;-89
2023/08/12 05:32:14;;;;;;;;;;;16.20;99.90;;;15.20;94.88;100833.78;9871508;29;97143;-87
2023/08/12 05:37:18;;;;;;;;;;;16.30;99.90;;;15.41;94.48;100830.41;9873581;29;98191;-89
2023/08/12 05:42:21;;;;;;;;;;;16.50;99.90;;;15.61;92.61;100827.97;9854481;29;98655;-89
2023/08/12 05:47:25;;;;;;;;;;;16.70;99.90;;;15.77;90.88;100821.59;9866716;29;97100;-88
2023/08/12 05:52:28;;;;;;;;;;;17.00;99.90;;;15.99;89.54;100834.06;9881615;29;97770;-89
2023/08/12 05:57:32;;;;;;;;;;;17.10;99.90;;;16.24;89.10;100825.69;9864482;29;96615;-88
2023/08/12 06:02:35;;;;;;;;;;;17.40;99.90;;;16.52;87.97;100820.41;9876723;29;96537;-89
2023/08/12 06:07:39;;;;;;;;;;;17.60;99.90;;;16.79;87.50;100811.63;9895258;29;96880;-88
2023/08/12 06:12:42;;;;;;;;;;;17.90;99.90;;;17.10;86.19;100821.16;9863238;29;96616;-89
2023/08/12 06:17:46;;;;;;;;;;;18.30;99.80;;;17.44;83.86;100814.13;9854649;29;97859;-89
2023/08/12 06:22:50;;;;;;;;;;;18.60;99.30;;;17.73;80.59;100813.91;9859976;29;96704;-89
2023/08/12 06:27:54;;;;;;;;;;;18.80;98.50;;;18.01;79.20;100815.69;9872016;29;96621;-89
2023/08/12 06:32:57;;;;;;;;;;;19.10;98.00;;;18.22;77.71;100815.53;9853375;29;96846;-89
2023/08/12 06:38:01;;;;;;;;;;;19.30;97.30;;;18.42;76.76;100808.34;9856747;29;97357;-89
2023/08/12 06:43:05;;;;;;;;;;;19.60;97.00;;;18.61;72.92;100800.50;9849308;29;97807;-89
2023/08/12 06:48:08;;;;;;;;;;;19.70;95.80;;;18.82;70.74;100800.31;9863773;29;96659;-89
2023/08/12 06:53:12;;;;;;;;;;;20.00;95.30;;;19.00;70.29;100799.69;9871220;29;96726;-89
2023/08/12 06:58:15;;;;;;;;;;;20.20;94.90;;;19.24;68.86;100795.53;9864163;29;98945;-88
2023/08/12 07:03:19;;;;;;;;;;;20.40;94.50;;;19.45;67.30;100803.38;9871858;29;96917;-89
2023/08/12 07:08:22;;;;;;;;;;;20.60;93.80;;;19.65;65.97;100797.94;9897675;29;96967;-89
2023/08/12 07:13:26;;;;;;;;;;;20.80;92.60;;;19.82;66.09;100789.38;9873087;29;96938;-89
2023/08/12 07:18:31;;;;;;;;;;;21.00;92.80;;;19.99;64.97;100799.47;9860246;29;96810;-88
2023/08/12 07:23:34;;;;;;;;;;;21.20;92.50;;;20.18;64.13;100797.69;9852886;29;96785;-89
2023/08/12 07:28:38;;;;;;;;;;;21.40;91.80;;;20.36;64.34;100786.16;9889276;29;96708;-89
2023/08/12 07:33:42;;;;;;;;;;;21.50;92.10;;;20.57;63.36;100785.84;9896420;29;96582;-89
2023/08/12 07:38:45;;;;;;;;;;;21.70;91.50;;;20.90;64.54;100789.31;9887970;29;96606;-89
2023/08/12 07:43:49;;;;;;;;;;;22.00;91.70;;;21.11;62.84;100792.47;9857131;29;96791;-89
2023/08/12 07:48:52;;;;;;;;;;;22.30;91.00;;;21.35;60.48;100790.78;9862845;29;96687;-89
2023/08/12 07:53:56;;;;;;;;;;;22.50;90.60;;;21.58;60.66;100790.09;9881893;29;98405;-89
2023/08/12 07:58:59;;;;;;;;;;;22.70;89.80;;;21.71;60.04;100772.06;9866652;29;98852;-88
2023/08/12 08:04:03;;;;;;;;;;;22.90;89.50;;;21.90;59.22;100773.69;9853673;29;97546;-89
2023/08/12 08:09:07;;;;;;;;;;;23.00;88.60;;;22.11;59.10;100784.03;9861882;29;98247;-89
2023/08/12 08:14:10;;;;;;;;;;;23.20;88.10;;;22.29;59.56;100766.09;9872411;29;98180;-89
2023/08/12 08:19:13;;;;;;;;;;;23.40;87.70;;;22.47;57.58;100773.31;9865805;29;96570;-89
2023/08/12 08:24:22;;;;;;;;;;;23.60;86.60;;;22.59;55.17;100766.88;9860655;29;96763;-89
2023/08/12 08:29:26;;;;;;;;;;;23.70;83.50;;;22.77;53.26;100770.53;9849942;29;98456;-88
2023/08/12 08:34:30;;;;;;;;;;;23.90;84.30;;;22.95;53.72;100774.00;9852210;29;96722;-88
2023/08/12 08:39:33;;;;;;;;;;;24.10;83.50;;;23.14;53.37;100766.56;9880444;29;96608;-88
2023/08/12 08:44:40;;;;;;;;;;;24.30;82.30;;;23.29;50.66;100762.56;9876662;29;97719;-88
2023/08/12 08:49:44;;;;;;;;;;;24.50;81.30;;;23.48;49.13;100774.91;9887413;29;96712;-88
2023/08/12 08:54:47;;;;;;;;;;;24.70;78.80;;;23.67;49.01;100762.84;9882726;29;96747;-89
2023/08/12 08:59:51;;;;;;;;;;;25.00;78.10;;;23.99;47.95;100771.34;9863651;29;96856;-88
2023/08/12 09:04:57;;;;;;;;;;;25.20;77.10;;;24.14;48.47;100761.84;9853171;29;96739;-88
2023/08/12 09:10:03;;;;;;;;;;;25.30;75.80;;;24.20;46.81;100758.16;9876889;29;96554;-90
2023/08/12 09:15:07;;;;;;;;;;;25.40;74.90;;;24.17;48.81;100754.03;9891103;29;98613;-89
2023/08/12 09:20:11;;;;;;;;;;;25.30;75.10;;;24.28;49.53;100731.41;9879688;29;96689;-89
2023/08/12 09:25:15;;;;;;;;;;;25.40;75.50;;;24.38;47.53;100738.13;9864018;29;97534;-87
2023/08/12 09:30:20;;;;;;;;;;;25.60;74.00;;;24.51;47.75;100732.34;9860662;29;97595;-89
2023/08/12 09:35:23;;;;;;;;;;;25.60;73.70;;;24.65;49.70;100720.09;9853397;29;96679;-87
2023/08/12 09:40:27;;;;;;;;;;;25.80;74.70;;;24.72;46.24;100728.06;9883341;29;97239;-88
2023/08/12 09:45:32;;;;;;;;;;;25.90;72.30;;;24.81;47.06;100715.69;9884578;29;96647;-88
2023/08/12 09:50:36;;;;;;;;;;;26.00;72.10;;;24.94;47.00;100723.50;9878853;29;96644;-88
2023/08/12 09:55:40;;;;;;;;;;;26.10;72.00;;;25.11;47.04;100717.22;9872041;29;97515;-88
2023/08/12 10:00:45;;;;;;;;;;;26.20;71.20;;;25.22;45.98;100699.97;9880073;29;96684;-89
2023/08/12 10:05:50;;;;;;;;;;;26.40;71.20;;;25.44;45.79;100692.66;9869152;29;96839;-88
2023/08/12 10:10:54;;;;;;;;;;;26.50;70.20;;;25.76;46.24;100695.47;9869636;29;97011;-88
2023/08/12 10:16:14;;;;;;;;;;;26.80;70.80;;;25.92;44.71;100691.00;9889328;29;96717;-88
2023/08/12 10:21:18;;;;;;;;;;;27.00;68.90;;;26.09;44.76;100689.00;9886050;29;96582;-87
2023/08/12 10:26:22;;;;;;;;;;;27.20;68.90;;;26.29;44.99;100679.34;9865392;29;97601;-88
2023/08/12 10:31:30;;;;;;;;;;;27.40;68.80;;;26.28;41.48;100673.09;9865539;29;98189;-88
2023/08/12 10:36:34;;;;;;;;;;;27.60;67.10;;;26.37;40.96;100679.69;9865362;29;96701;-88
2023/08/12 10:41:53;;;;;;;;;;;27.60;66.10;;;26.48;37.81;100664.25;9866068;29;96893;-89
2023/08/12 10:46:58;;;;;;;;;;;27.70;59.30;;;26.67;36.29;100664.66;9899497;29;97815;-88
2023/08/12 10:52:02;;;;;;;;;;;27.80;57.50;;;26.67;37.92;100661.94;9898844;29;97310;-88
2023/08/12 10:57:13;;;;;;;;;;;27.90;61.10;;;26.75;36.64;100653.28;9862536;29;96674;-89
2023/08/12 11:02:17;;;;;;;;;;;27.90;59.70;;;26.80;36.49;100653.28;9885315;29;97199;-88
2023/08/12 11:07:42;;;;;;;;;;;28.00;58.90;;;27.02;37.24;100649.56;9871525;29;97262;-89
2023/08/12 11:12:52;;;;;;;;;;;28.20;58.70;;;27.24;37.17;100636.63;9867642;29;97490;-89
2023/08/12 11:17:55;;;;;;;;;;;28.40;58.70;;;27.23;37.55;100621.34;9879636;29;96758;-90
2023/08/12 11:22:59;;;;;;;;;;;28.50;58.80;;;27.20;38.82;100625.41;9869372;29;98524;-88
2023/08/12 11:28:04;;;;;;;;;;;28.50;59.30;;;27.32;38.67;100619.72;9869801;29;97865;-90
2023/08/12 11:33:08;;;;;;;;;;;28.60;59.40;;;27.34;34.85;100612.06;9861033;29;96654;-89
2023/08/12 11:38:11;;;;;;;;;;;28.60;56.90;;;27.21;36.57;100620.75;9862608;29;97500;-89
2023/08/12 11:43:15;;;;;;;;;;;28.50;57.40;;;27.10;37.35;100611.72;9863004;29;97320;-89
2023/08/12 11:48:19;;;;;;;;;;;28.40;57.90;;;27.11;37.52;100607.09;9858117;29;96705;-89
2023/08/12 11:53:23;;;;;;;;;;;28.30;57.50;;;27.35;37.72;100607.44;9863888;29;96658;-88
2023/08/12 11:58:34;;;;;;;;;;;28.40;58.20;;;27.59;37.29;100600.41;9856765;29;96823;-89
2023/08/12 12:03:55;;;;;;;;;;;28.60;58.60;;;27.73;36.69;100587.06;9867340;29;96686;-89
2023/08/12 12:09:09;;;;;;;;;;;28.90;58.00;;;27.90;38.52;100579.41;9874500;29;96736;-89
2023/08/12 12:14:13;;;;;;;;;;;29.00;58.80;;;27.95;37.24;100579.41;9875884;29;96658;-89
2023/08/12 12:19:21;;;;;;;;;;;29.20;57.90;;;28.15;36.77;100562.19;9861646;29;97059;-88
2023/08/12 12:24:29;;;;;;;;;;;29.30;57.20;;;28.48;36.86;100563.47;9859127;29;96780;-88
2023/08/12 12:29:33;;;;;;;;;;;29.60;57.20;;;28.71;36.45;100566.69;9857970;29;96722;-88
2023/08/12 12:34:36;;;;;;;;;;;29.80;56.30;;;28.77;35.59;100560.94;9862689;29;96638;-89
2023/08/12 12:39:40;;;;;;;;;;;30.00;55.60;;;28.67;36.04;100554.66;9870167;29;96863;-88
2023/08/12 12:44:43;;;;;;;;;;;29.80;56.20;;;28.83;37.84;100545.31;9867697;29;98171;-88
2023/08/12 12:49:47;;;;;;;;;;;29.90;57.50;;;28.87;36.19;100546.41;9869963;29;97385;-88
2023/08/12 12:54:50;;;;;;;;;;;29.90;56.20;;;28.91;36.80;100542.00;9865985;29;98496;-88
2023/08/12 12:59:54;;;;;;;;;;;30.00;57.20;;;28.86;34.98;100544.75;9891412;29;96662;-89
2023/08/12 13:04:57;;;;;;;;;;;30.20;55.90;;;28.61;34.39;100534.75;9901723;29;98141;-88
2023/08/12 13:10:00;;;;;;;;;;;30.10;55.30;;;28.64;35.81;100536.09;9884022;29;97373;-88
2023/08/12 13:15:04;;;;;;;;;;;30.10;55.50;;;28.53;34.95;100525.19;9882782;29;96731;-89
2023/08/12 13:20:09;;;;;;;;;;;30.00;54.70;;;28.61;36.21;100523.81;9895139;29;98184;-89
2023/08/12 13:25:13;;;;;;;;;;;30.10;55.10;;;28.67;35.59;100522.72;9876761;29;98114;-88
2023/08/12 13:30:16;;;;;;;;;;;30.40;54.70;;;29.08;37.43;100524.41;9894409;29;96619;-88
2023/08/12 13:35:20;;;;;;;;;;;30.90;55.60;;;29.41;34.75;100509.97;9889393;29;97992;-88
2023/08/12 13:40:24;;;;;;;;;;;31.10;53.70;;;29.45;35.18;100500.09;9866546;29;96593;-88
2023/08/12 13:45:28;;;;;;;;;;;30.90;54.90;;;29.44;35.18;100514.84;9861778;29;98459;-88
2023/08/12 13:50:32;;;;;;;;;;;30.70;55.10;;;29.40;35.25;100508.34;9903383;29;97330;-88
2023/08/12 13:55:36;;;;;;;;;;;30.60;55.10;;;29.37;35.50;100494.38;9880791;29;96731;-88
2023/08/12 14:00:39;;;;;;;;;;;30.50;55.30;;;29.56;36.35;100487.94;9883690;29;97025;-88
2023/08/12 14:05:44;;;;;;;;;;;30.60;55.50;;;29.84;35.49;100491.00;9881893;29;96611;-88
2023/08/12 14:10:49;;;;;;;;;;;30.90;55.30;;;30.06;35.69;100482.28;9858834;29;96983;-88
2023/08/12 14:15:54;;;;;;;;;;;31.20;55.60;;;29.94;34.85;100471.72;9850060;29;97014;-86
2023/08/12 14:20:58;;;;;;;;;;;31.40;54.80;;;30.19;35.50;100478.06;9849422;29;96640;-86
2023/08/12 14:26:01;;;;;;;;;;;31.80;54.60;;;30.59;35.31;100474.81;9891169;29;98469;-86
2023/08/12 14:31:04;;;;;;;;;;;32.30;54.10;;;31.05;34.78;100465.94;9878467;29;96683;-86
2023/08/12 14:36:25;;;;;;;;;;;33.00;54.00;;;31.27;33.67;100459.06;9887392;29;98444;-86
2023/08/12 14:41:29;;;;;;;;;;;33.50;53.60;;;31.58;33.70;100451.94;9862013;29;98366;-86
2023/08/12 14:46:32;;;;;;;;;;;33.90;53.60;;;32.01;32.35;100459.94;9862944;29;97514;-86
2023/08/12 14:51:36;;;;;;;;;;;34.30;53.00;;;32.23;31.20;100459.25;9855244;29;97909;-87
2023/08/12 14:56:39;;;;;;;;;;;34.60;52.60;;;32.61;31.18;100448.03;9871046;29;97584;-87
2023/08/12 15:01:43;;;;;;;;;;;35.00;52.70;;;32.56;29.81;100443.44;9874627;29;96723;-86
2023/08/12 15:06:46;;;;;;;;;;;35.10;51.00;;;32.64;30.07;100445.47;9871279;29;98273;-86
2023/08/12 15:11:50;;;;;;;;;;;34.90;50.60;;;32.60;30.57;100432.66;9878506;29;97827;-87
2023/08/12 15:16:53;;;;;;;;;;;34.70;50.40;;;32.71;30.16;100425.78;9884522;29;96710;-86
2023/08/12 15:21:57;;;;;;;;;;;34.70;50.50;;;33.05;29.81;100428.06;9870308;29;97575;-86
2023/08/12 15:27:01;;;;;;;;;;;34.90;48.80;;;33.09;30.14;100406.19;9874715;29;97597;-86
2023/08/12 15:32:05;;;;;;;;;;;34.90;49.60;;;33.25;29.73;100419.28;9866822;29;96693;-86
2023/08/12 15:37:09;;;;;;;;;;;35.00;49.40;;;33.35;28.75;100409.09;9876932;29;97092;-86
2023/08/12 15:42:13;;;;;;;;;;;35.00;49.20;;;33.44;29.27;100410.81;9881379;29;96605;-86
2023/08/12 15:47:16;;;;;;;;;;;35.10;49.20;;;33.18;30.16;100410.66;9860877;29;98182;-85
2023/08/12 15:52:20;;;;;;;;;;;35.00;49.30;;;32.83;30.04;100411.50;9845412;29;96751;-85
2023/08/12 15:57:23;;;;;;;;;;;34.70;48.90;;;32.88;29.98;100405.91;9867444;29;98389;-85
2023/08/12 16:02:27;;;;;;;;;;;34.60;49.60;;;32.59;30.27;100409.00;9869839;29;96701;-85
2023/08/12 16:07:31;;;;;;;;;;;34.30;49.00;;;32.32;29.96;100407.91;9861001;29;96628;-85
2023/08/12 16:12:35;;;;;;;;;;;34.00;48.70;;;31.91;30.53;100410.72;9859276;29;96636;-85
2023/08/12 16:17:38;;;;;;;;;;;33.50;49.10;;;31.66;31.10;100404.53;9860061;29;96635;-85
2023/08/12 16:22:42;;;;;;;;;;;33.30;49.40;;;31.86;32.74;100406.13;9877309;29;96813;-85
2023/08/12 16:27:45;;;;;;;;;;;33.30;50.10;;;31.83;33.18;100403.97;9875038;29;96647;-85
2023/08/12 16:32:49;;;;;;;;;;;33.30;50.70;;;31.38;31.21;100408.38;9862476;29;97487;-85
2023/08/12 16:37:53;;;;;;;;;;;32.90;49.70;;;31.18;32.34;100399.31;9859224;29;97070;-85
2023/08/12 16:42:56;;;;;;;;;;;32.60;50.20;;;31.07;33.13;100406.09;9856928;29;97376;-85
2023/08/12 16:48:00;;;;;;;;;;;32.40;50.60;;;30.83;33.55;100402.66;9866514;29;96640;-85
2023/08/12 16:53:03;;;;;;;;;;;32.10;50.80;;;30.49;34.85;100416.56;9857945;29;98507;-84
2023/08/12 16:58:07;;;;;;;;;;;31.70;51.50;;;29.92;34.99;100421.06;9863642;29;96762;-84
2023/08/12 17:03:10;;;;;;;;;;;31.20;51.80;;;29.38;36.26;100425.66;9843665;29;96939;-85
2023/08/12 17:08:14;;;;;;;;;;;30.60;53.00;;;28.77;38.09;100428.84;9845578;29;96786;-84
2023/08/12 17:13:18;;;;;;;;;;;30.00;54.50;;;28.19;39.01;100415.75;9883270;29;96634;-85
2023/08/12 17:18:21;;;;;;;;;;;29.30;55.00;;;27.67;41.27;100429.78;9854690;29;97488;-85
2023/08/12 17:23:25;;;;;;;;;;;28.80;56.80;;;27.19;44.05;100429.25;9871987;29;98459;-84
2023/08/12 17:28:29;;;;;;;;;;;28.20;59.20;;;26.47;47.02;100436.47;9875411;29;96590;-85
2023/08/12 17:33:32;;;;;;;;;;;27.60;59.10;;;25.73;49.32;100440.16;9903685;29;96814;-84
2023/08/12 17:38:36;;;;;;;;;;;27.00;60.40;;;25.20;50.49;100441.06;9867693;29;96689;-84
2023/08/12 17:43:43;;;;;;;;;;;26.40;60.90;;;24.69;51.62;100433.19;9881112;29;97633;-85
2023/08/12 17:48:47;;;;;;;;;;;26.00;62.10;;;24.35;52.58;100439.84;9867938;29;97941;-85
2023/08/12 17:53:50;;;;;;;;;;;25.60;64.40;;;23.99;53.68;100439.34;9870649;29;96702;-84
2023/08/12 17:58:54;;;;;;;;;;;25.20;64.70;;;23.70;54.77;100446.81;9879506;29;96797;-83
2023/08/12 18:03:58;;;;;;;;;;;24.90;65.50;;;23.51;55.43;100448.94;9895460;29;96575;-83
2023/08/12 18:09:01;;;;;;;;;;;24.60;67.10;;;23.28;56.83;100451.81;9886444;29;97051;-83
2023/08/12 18:14:05;;;;;;;;;;;24.30;69.50;;;23.00;56.67;100469.75;9889299;29;96812;-83
2023/08/12 18:19:08;;;;;;;;;;;24.10;69.30;;;22.84;57.02;100465.06;9875514;29;96550;-83
2023/08/12 18:24:12;;;;;;;;;;;23.80;68.80;;;22.71;57.67;100475.13;9882861;29;98130;-83
2023/08/12 18:29:15;;;;;;;;;;;23.70;70.00;;;22.57;59.76;100472.94;9868827;29;96606;-84
2023/08/12 18:34:18;;;;;;;;;;;23.50;71.70;;;22.41;61.34;100488.06;9880000;29;96720;-84
2023/08/12 18:39:24;;;;;;;;;;;23.40;73.20;;;22.30;61.91;100489.72;9863788;29;98548;-85
2023/08/12 18:44:28;;;;;;;;;;;23.20;72.60;;;22.18;62.71;100495.13;9856544;29;98124;-84
2023/08/12 18:49:31;;;;;;;;;;;23.10;73.10;;;22.06;62.81;100499.72;9881012;29;97635;-83
2023/08/12 18:54:36;;;;;;;;;;;23.00;72.40;;;21.97;63.22;100497.63;9879199;29;98955;-83
2023/08/12 18:59:40;;;;;;;;;;;22.90;72.50;;;21.81;64.44;100505.34;9868021;29;96831;-83
2023/08/12 19:04:43;;;;;;;;;;;22.80;74.70;;;21.64;65.13;100516.03;9863931;29;96681;-84
2023/08/12 19:09:47;;;;;;;;;;;22.60;75.40;;;21.50;65.52;100513.78;9858191;29;97606;-86
2023/08/12 19:14:51;;;;;;;;;;;22.50;75.50;;;21.41;65.44;100524.13;9853602;29;96726;-86
2023/08/12 19:19:54;;;;;;;;;;;22.40;74.80;;;21.29;64.82;100524.09;9860963;29;96879;-86
2023/08/12 19:24:57;;;;;;;;;;;22.30;75.00;;;21.21;65.53;100518.97;9864610;29;96887;-86
2023/08/12 19:30:01;;;;;;;;;;;22.20;76.20;;;21.08;65.83;100527.25;9860201;29;96763;-86
2023/08/12 19:35:05;;;;;;;;;;;22.10;76.60;;;20.89;66.71;100529.19;9872917;29;97077;-84
2023/08/12 19:40:10;;;;;;;;;;;21.90;78.50;;;20.81;67.22;100533.03;9866506;29;98828;-86
2023/08/12 19:45:14;;;;;;;;;;;21.80;78.90;;;20.64;68.00;100531.16;9862599;29;98638;-86
2023/08/12 19:50:17;;;;;;;;;;;21.70;80.40;;;20.55;68.32;100541.41;9870583;29;98525;-86
2023/08/12 19:55:20;;;;;;;;;;;21.50;78.90;;;20.44;69.11;100537.56;9872738;29;98633;-86
2023/08/12 20:00:24;;;;;;;;;;;21.40;79.10;;;20.35;69.16;100541.63;9860949;29;98829;-86
2023/08/12 20:05:30;;;;;;;;;;;21.30;80.10;;;20.18;69.55;100544.06;9846596;29;97763;-86
2023/08/12 20:10:34;;;;;;;;;;;21.20;80.10;;;20.05;70.13;100550.41;9863509;29;96591;-86
2023/08/12 20:15:38;;;;;;;;;;;21.10;79.90;;;19.98;69.90;100544.25;9856983;29;96908;-86
2023/08/12 20:20:47;;;;;;;;;;;21.00;80.00;;;19.93;70.27;100548.66;9871594;29;96777;-85
2023/08/12 20:25:50;;;;;;;;;;;20.90;80.00;;;19.86;70.65;100553.28;9860728;29;97441;-86
2023/08/12 20:30:53;;;;;;;;;;;20.90;80.70;;;19.75;70.65;100547.56;9858626;29;98421;-85
2023/08/12 20:35:57;;;;;;;;;;;20.80;80.00;;;19.66;71.03;100543.47;9857818;29;96746;-85
2023/08/12 20:41:01;;;;;;;;;;;20.70;80.10;;;19.64;71.43;100558.22;9856705;29;96772;-85
2023/08/12 20:46:05;;;;;;;;;;;20.70;81.70;;;19.53;71.91;100563.22;9864070;29;97559;-86
2023/08/12 20:51:08;;;;;;;;;;;20.50;81.30;;;19.43;71.94;100570.97;9881921;29;96825;-85
2023/08/12 20:56:14;;;;;;;;;;;20.40;81.80;;;19.34;72.47;100566.88;9867114;29;97284;-86
2023/08/12 21:01:17;;;;;;;;;;;20.30;81.90;;;19.20;72.04;100566.13;9860459;29;97985;-86
2023/08/12 21:06:20;;;;;;;;;;;20.30;81.40;;;19.17;72.32;100579.19;9864058;29;96829;-85
2023/08/12 21:11:24;;;;;;;;;;;20.20;81.70;;;19.13;73.44;100567.19;9882644;29;96666;-85
2023/08/12 21:16:27;;;;;;;;;;;20.10;82.50;;;19.07;73.30;100568.03;9848410;29;96770;-84
2023/08/12 21:21:31;;;;;;;;;;;20.10;82.30;;;19.00;73.87;100568.06;9855731;29;97550;-85
2023/08/12 21:26:35;;;;;;;;;;;20.10;82.80;;;18.97;73.42;100565.81;9860741;29;98220;-85
2023/08/12 21:31:39;;;;;;;;;;;20.00;82.40;;;18.88;73.78;100556.31;9857620;29;96595;-86
2023/08/12 21:36:42;;;;;;;;;;;20.00;82.90;;;18.84;74.46;100564.03;9862443;29;97747;-86
2023/08/12 21:41:46;;;;;;;;;;;19.90;83.20;;;18.77;74.85;100568.56;9846229;29;96959;-85
2023/08/12 21:46:49;;;;;;;;;;;19.80;83.60;;;18.65;75.45;100554.09;9880845;29;96618;-86
2023/08/12 21:51:52;;;;;;;;;;;19.70;84.90;;;18.59;75.32;100563.00;9848926;29;96692;-86
2023/08/12 21:56:56;;;;;;;;;;;19.70;84.90;;;18.43;76.26;100557.06;9861564;29;97058;-86
2023/08/12 22:02:02;;;;;;;;;;;19.60;85.80;;;18.42;77.20;100557.28;9867680;29;97975;-85
2023/08/12 22:07:05;;;;;;;;;;;19.50;85.70;;;18.37;77.40;100557.91;9884563;29;96742;-85
2023/08/12 22:12:09;;;;;;;;;;;19.40;86.40;;;18.26;77.14;100542.41;9890950;29;96611;-85
2023/08/12 22:17:12;;;;;;;;;;;19.40;85.50;;;18.24;77.94;100557.94;9875166;29;97804;-85
2023/08/12 22:22:17;;;;;;;;;;;19.30;86.90;;;18.16;78.20;100560.81;9869346;29;96896;-85
2023/08/12 22:27:22;;;;;;;;;;;19.20;87.10;;;18.07;78.96;100557.53;9871673;29;96759;-86
2023/08/12 22:32:26;;;;;;;;;;;19.10;87.00;;;17.95;79.29;100545.75;9871501;29;96697;-85
2023/08/12 22:37:30;;;;;;;;;;;19.00;87.60;;;17.90;79.64;100548.22;9849989;29;96652;-85
2023/08/12 22:42:33;;;;;;;;;;;18.90;87.40;;;17.81;80.37;100542.25;9851141;29;96738;-85
2023/08/12 22:47:36;;;;;;;;;;;18.90;88.80;;;17.72;80.51;100548.84;9862677;29;98107;-84
2023/08/12 22:52:41;;;;;;;;;;;18.80;89.30;;;17.61;81.97;100550.25;9860825;29;99011;-85
2023/08/12 22:57:44;;;;;;;;;;;18.70;89.60;;;17.56;81.83;100549.22;9880417;29;96988;-85
2023/08/12 23:02:48;;;;;;;;;;;18.60;90.10;;;17.46;82.33;100546.13;9881236;29;96989;-85